sensor_id;sensor_type;location;lat;lon;timestamp;pressure;altitude;pressure_sealevel;temperature;humidity
18527;BME280;9393;42.158;24.748;2023-02-24T00:00:33;99884.97;;;9.53;93.91
18527;BME280;9393;42.158;24.748;2023-02-24T00:03:48;99882.09;;;9.36;96.43
18527;BME280;9393;42.158;24.748;2023-02-24T00:06:53;99870.03;;;9.76;94.34
18527;BME280;9393;42.158;24.748;2023-02-24T00:09:59;99864.00;;;9.55;94.31
18527;BME280;9393;42.158;24.748;2023-02-24T00:13:04;99869.28;;;9.44;94.41
18527;BME280;9393;42.158;24.748;2023-02-24T00:16:08;99872.00;;;9.42;95.42
18527;BME280;9393;42.158;24.748;2023-02-24T00:19:16;99870.03;;;9.76;93.70
18527;BME280;9393;42.158;24.748;2023-02-24T00:22:21;99875.47;;;9.94;92.26
18527;BME280;9393;42.158;24.748;2023-02-24T00:25:26;99874.19;;;9.79;92.38
18527;BME280;9393;42.158;24.748;2023-02-24T00:28:30;99865.59;;;9.46;93.61
18527;BME280;9393;42.158;24.748;2023-02-24T00:31:34;99862.78;;;9.59;93.10
18527;BME280;9393;42.158;24.748;2023-02-24T00:34:41;99853.59;;;9.13;94.61
18527;BME280;9393;42.158;24.748;2023-02-24T00:37:47;99845.59;;;9.26;94.30
18527;BME280;9393;42.158;24.748;2023-02-24T00:40:52;99852.91;;;9.00;95.98
18527;BME280;9393;42.158;24.748;2023-02-24T00:44:00;99848.47;;;9.23;94.23
18527;BME280;9393;42.158;24.748;2023-02-24T00:47:08;99849.19;;;9.14;95.35
18527;BME280;9393;42.158;24.748;2023-02-24T00:50:14;99843.88;;;9.36;94.20
18527;BME280;9393;42.158;24.748;2023-02-24T00:53:19;99834.69;;;9.32;93.13
18527;BME280;9393;42.158;24.748;2023-02-24T00:56:24;99831.81;;;9.14;93.22
18527;BME280;9393;42.158;24.748;2023-02-24T00:59:28;99832.44;;;9.48;91.78
18527;BME280;9393;42.158;24.748;2023-02-24T01:02:32;99828.91;;;9.49;91.94
18527;BME280;9393;42.158;24.748;2023-02-24T01:05:36;99825.13;;;9.63;90.48
18527;BME280;9393;42.158;24.748;2023-02-24T01:08:41;99822.03;;;9.48;89.99
18527;BME280;9393;42.158;24.748;2023-02-24T01:11:48;99820.50;;;9.25;91.81
18527;BME280;9393;42.158;24.748;2023-02-24T01:15:10;99822.91;;;9.58;90.18
18527;BME280;9393;42.158;24.748;2023-02-24T01:18:14;99819.09;;;9.62;89.16
18527;BME280;9393;42.158;24.748;2023-02-24T01:21:18;99815.34;;;9.76;87.43
18527;BME280;9393;42.158;24.748;2023-02-24T01:24:24;99814.78;;;9.52;88.79
18527;BME280;9393;42.158;24.748;2023-02-24T01:27:28;99809.63;;;9.82;87.41
18527;BME280;9393;42.158;24.748;2023-02-24T01:30:32;99812.91;;;9.54;88.22
18527;BME280;9393;42.158;24.748;2023-02-24T01:33:36;99816.69;;;9.71;86.82
18527;BME280;9393;42.158;24.748;2023-02-24T01:36:41;99815.06;;;9.49;88.09
18527;BME280;9393;42.158;24.748;2023-02-24T01:39:47;99806.75;;;9.34;89.00
18527;BME280;9393;42.158;24.748;2023-02-24T01:42:51;99813.16;;;9.30;88.07
18527;BME280;9393;42.158;24.748;2023-02-24T01:45:55;99821.03;;;9.60;87.19
18527;BME280;9393;42.158;24.748;2023-02-24T01:49:01;99813.31;;;9.59;86.55
18527;BME280;9393;42.158;24.748;2023-02-24T01:52:09;99805.72;;;9.46;86.45
18527;BME280;9393;42.158;24.748;2023-02-24T01:55:19;99809.09;;;9.58;86.12
18527;BME280;9393;42.158;24.748;2023-02-24T01:58:27;99807.38;;;9.68;85.51
18527;BME280;9393;42.158;24.748;2023-02-24T02:01:31;99805.97;;;9.64;85.19
18527;BME280;9393;42.158;24.748;2023-02-24T02:04:47;99795.88;;;9.80;84.02
18527;BME280;9393;42.158;24.748;2023-02-24T02:07:53;99812.47;;;10.09;82.85
18527;BME280;9393;42.158;24.748;2023-02-24T02:11:02;99804.47;;;10.01;82.32
18527;BME280;9393;42.158;24.748;2023-02-24T02:14:08;99800.44;;;9.57;83.14
18527;BME280;9393;42.158;24.748;2023-02-24T02:17:18;99806.84;;;9.74;83.85
18527;BME280;9393;42.158;24.748;2023-02-24T02:20:39;99803.63;;;9.91;82.86
18527;BME280;9393;42.158;24.748;2023-02-24T02:23:58;99801.94;;;9.81;82.71
18527;BME280;9393;42.158;24.748;2023-02-24T02:27:39;99799.75;;;9.35;84.48
18527;BME280;9393;42.158;24.748;2023-02-24T02:31:19;99800.75;;;9.64;83.39
18527;BME280;9393;42.158;24.748;2023-02-24T02:34:37;99796.53;;;9.42;83.82
18527;BME280;9393;42.158;24.748;2023-02-24T02:37:51;99798.88;;;9.76;82.13
18527;BME280;9393;42.158;24.748;2023-02-24T02:41:02;99799.94;;;9.63;81.80
18527;BME280;9393;42.158;24.748;2023-02-24T02:44:13;99809.41;;;9.44;82.72
18527;BME280;9393;42.158;24.748;2023-02-24T02:47:22;99804.69;;;9.58;82.14
18527;BME280;9393;42.158;24.748;2023-02-24T02:50:33;99819.31;;;9.50;81.89
18527;BME280;9393;42.158;24.748;2023-02-24T02:53:44;99816.94;;;9.68;81.61
18527;BME280;9393;42.158;24.748;2023-02-24T02:56:56;99823.13;;;9.46;81.91
18527;BME280;9393;42.158;24.748;2023-02-24T03:00:06;99819.63;;;9.56;81.60
18527;BME280;9393;42.158;24.748;2023-02-24T03:03:16;99822.09;;;9.58;81.76
18527;BME280;9393;42.158;24.748;2023-02-24T03:06:26;99816.66;;;9.61;81.20
18527;BME280;9393;42.158;24.748;2023-02-24T03:09:35;99823.09;;;9.67;80.92
18527;BME280;9393;42.158;24.748;2023-02-24T03:12:42;99821.06;;;9.70;80.66
18527;BME280;9393;42.158;24.748;2023-02-24T03:15:51;99820.69;;;9.75;80.23
18527;BME280;9393;42.158;24.748;2023-02-24T03:19:01;99818.94;;;9.85;79.69
18527;BME280;9393;42.158;24.748;2023-02-24T03:22:10;99825.09;;;9.84;79.68
18527;BME280;9393;42.158;24.748;2023-02-24T03:25:19;99821.19;;;9.89;79.49
18527;BME280;9393;42.158;24.748;2023-02-24T03:28:31;99809.72;;;9.50;80.42
18527;BME280;9393;42.158;24.748;2023-02-24T03:31:43;99809.28;;;9.45;80.55
18527;BME280;9393;42.158;24.748;2023-02-24T03:34:53;99811.00;;;9.86;79.42
18527;BME280;9393;42.158;24.748;2023-02-24T03:38:01;99810.50;;;9.92;79.21
18527;BME280;9393;42.158;24.748;2023-02-24T03:41:05;99803.16;;;9.56;79.98
18527;BME280;9393;42.158;24.748;2023-02-24T03:44:13;99799.09;;;9.63;79.98
18527;BME280;9393;42.158;24.748;2023-02-24T03:47:17;99794.06;;;9.41;80.60
18527;BME280;9393;42.158;24.748;2023-02-24T03:50:22;99799.44;;;9.49;80.94
18527;BME280;9393;42.158;24.748;2023-02-24T03:53:40;99793.38;;;9.69;79.58
18527;BME280;9393;42.158;24.748;2023-02-24T03:57:01;99796.06;;;9.58;80.44
18527;BME280;9393;42.158;24.748;2023-02-24T04:00:14;99788.94;;;9.60;80.17
18527;BME280;9393;42.158;24.748;2023-02-24T04:03:32;99793.44;;;9.79;79.03
18527;BME280;9393;42.158;24.748;2023-02-24T04:07:15;99793.81;;;9.44;80.52
18527;BME280;9393;42.158;24.748;2023-02-24T04:10:25;99791.75;;;9.68;79.21
18527;BME280;9393;42.158;24.748;2023-02-24T04:13:36;99786.97;;;9.83;78.44
18527;BME280;9393;42.158;24.748;2023-02-24T04:16:53;99791.09;;;9.55;79.26
18527;BME280;9393;42.158;24.748;2023-02-24T04:20:05;99787.38;;;10.08;77.34
18527;BME280;9393;42.158;24.748;2023-02-24T04:23:20;99796.41;;;9.44;79.84
18527;BME280;9393;42.158;24.748;2023-02-24T04:26:28;99783.97;;;9.47;79.59
18527;BME280;9393;42.158;24.748;2023-02-24T04:29:37;99781.41;;;9.36;80.40
18527;BME280;9393;42.158;24.748;2023-02-24T04:32:42;99770.13;;;9.77;78.34
18527;BME280;9393;42.158;24.748;2023-02-24T04:35:48;99767.84;;;9.33;80.53
18527;BME280;9393;42.158;24.748;2023-02-24T04:38:53;99760.75;;;9.65;78.88
18527;BME280;9393;42.158;24.748;2023-02-24T04:41:59;99761.34;;;9.78;78.16
18527;BME280;9393;42.158;24.748;2023-02-24T04:45:04;99764.56;;;10.01;77.29
18527;BME280;9393;42.158;24.748;2023-02-24T04:48:11;99764.38;;;9.83;77.46
18527;BME280;9393;42.158;24.748;2023-02-24T04:51:15;99760.19;;;9.61;78.01
18527;BME280;9393;42.158;24.748;2023-02-24T04:54:22;99763.81;;;9.80;77.84
18527;BME280;9393;42.158;24.748;2023-02-24T04:57:28;99762.47;;;9.55;78.44
18527;BME280;9393;42.158;24.748;2023-02-24T05:00:31;99760.13;;;9.52;78.44
18527;BME280;9393;42.158;24.748;2023-02-24T05:03:37;99753.84;;;9.54;77.89
18527;BME280;9393;42.158;24.748;2023-02-24T05:06:43;99767.50;;;9.47;78.36
18527;BME280;9393;42.158;24.748;2023-02-24T05:09:47;99762.97;;;9.79;77.23
18527;BME280;9393;42.158;24.748;2023-02-24T05:12:52;99757.81;;;9.89;77.04
18527;BME280;9393;42.158;24.748;2023-02-24T05:16:03;99765.22;;;9.53;78.37
18527;BME280;9393;42.158;24.748;2023-02-24T05:19:08;99769.41;;;9.45;78.57
18527;BME280;9393;42.158;24.748;2023-02-24T05:22:30;99757.06;;;9.37;79.40
18527;BME280;9393;42.158;24.748;2023-02-24T05:25:34;99762.06;;;9.29;79.73
18527;BME280;9393;42.158;24.748;2023-02-24T05:28:41;99768.72;;;9.43;79.67
18527;BME280;9393;42.158;24.748;2023-02-24T05:31:45;99773.34;;;9.39;79.45
18527;BME280;9393;42.158;24.748;2023-02-24T05:34:49;99768.63;;;9.84;77.34
18527;BME280;9393;42.158;24.748;2023-02-24T05:37:53;99772.19;;;9.83;77.32
18527;BME280;9393;42.158;24.748;2023-02-24T05:41:03;99773.56;;;9.87;77.01
18527;BME280;9393;42.158;24.748;2023-02-24T05:44:12;99768.56;;;9.65;78.13
18527;BME280;9393;42.158;24.748;2023-02-24T05:47:16;99759.63;;;9.58;78.88
18527;BME280;9393;42.158;24.748;2023-02-24T05:50:24;99767.78;;;9.44;79.05
18527;BME280;9393;42.158;24.748;2023-02-24T05:53:28;99774.56;;;9.35;79.19
18527;BME280;9393;42.158;24.748;2023-02-24T05:56:32;99777.34;;;9.43;78.56
18527;BME280;9393;42.158;24.748;2023-02-24T05:59:39;99772.09;;;9.34;79.17
18527;BME280;9393;42.158;24.748;2023-02-24T06:02:43;99769.03;;;9.49;78.62
18527;BME280;9393;42.158;24.748;2023-02-24T06:05:52;99778.06;;;9.25;79.31
18527;BME280;9393;42.158;24.748;2023-02-24T06:08:57;99778.50;;;9.09;80.37
18527;BME280;9393;42.158;24.748;2023-02-24T06:12:03;99779.38;;;9.40;79.04
18527;BME280;9393;42.158;24.748;2023-02-24T06:15:09;99776.56;;;9.52;78.17
18527;BME280;9393;42.158;24.748;2023-02-24T06:18:13;99771.19;;;9.44;78.34
18527;BME280;9393;42.158;24.748;2023-02-24T06:21:18;99772.72;;;9.47;77.60
18527;BME280;9393;42.158;24.748;2023-02-24T06:24:23;99772.59;;;9.28;78.45
18527;BME280;9393;42.158;24.748;2023-02-24T06:27:28;99771.53;;;9.09;79.28
18527;BME280;9393;42.158;24.748;2023-02-24T06:30:33;99765.53;;;8.98;80.00
18527;BME280;9393;42.158;24.748;2023-02-24T06:33:39;99772.84;;;9.25;79.00
18527;BME280;9393;42.158;24.748;2023-02-24T06:36:43;99771.22;;;9.24;79.29
18527;BME280;9393;42.158;24.748;2023-02-24T06:39:48;99775.53;;;9.34;78.48
18527;BME280;9393;42.158;24.748;2023-02-24T06:42:52;99764.31;;;9.64;77.37
18527;BME280;9393;42.158;24.748;2023-02-24T06:45:58;99761.13;;;9.60;77.38
18527;BME280;9393;42.158;24.748;2023-02-24T06:49:04;99754.13;;;9.31;78.30
18527;BME280;9393;42.158;24.748;2023-02-24T06:52:08;99754.88;;;9.42;77.99
18527;BME280;9393;42.158;24.748;2023-02-24T06:55:20;99756.88;;;9.59;77.60
18527;BME280;9393;42.158;24.748;2023-02-24T06:58:30;99760.09;;;9.22;78.70
18527;BME280;9393;42.158;24.748;2023-02-24T07:01:35;99752.72;;;9.47;78.30
18527;BME280;9393;42.158;24.748;2023-02-24T07:04:46;99753.31;;;9.60;77.09
18527;BME280;9393;42.158;24.748;2023-02-24T07:07:50;99754.94;;;9.82;76.91
18527;BME280;9393;42.158;24.748;2023-02-24T07:10:56;99750.44;;;10.03;75.94
18527;BME280;9393;42.158;24.748;2023-02-24T07:14:01;99743.66;;;10.22;75.25
18527;BME280;9393;42.158;24.748;2023-02-24T07:17:08;99737.78;;;10.39;74.50
18527;BME280;9393;42.158;24.748;2023-02-24T07:20:16;99737.41;;;10.53;73.90
18527;BME280;9393;42.158;24.748;2023-02-24T07:23:26;99744.50;;;10.32;74.53
18527;BME280;9393;42.158;24.748;2023-02-24T07:26:31;99747.44;;;9.98;75.88
18527;BME280;9393;42.158;24.748;2023-02-24T07:29:36;99745.22;;;10.53;74.08
18527;BME280;9393;42.158;24.748;2023-02-24T07:32:42;99748.13;;;10.79;72.85
18527;BME280;9393;42.158;24.748;2023-02-24T07:35:50;99748.53;;;10.74;72.82
18527;BME280;9393;42.158;24.748;2023-02-24T07:38:57;99751.38;;;10.52;73.42
18527;BME280;9393;42.158;24.748;2023-02-24T07:42:03;99750.03;;;10.77;72.99
18527;BME280;9393;42.158;24.748;2023-02-24T07:45:17;99740.44;;;10.77;72.97
18527;BME280;9393;42.158;24.748;2023-02-24T07:48:22;99744.81;;;10.86;72.50
18527;BME280;9393;42.158;24.748;2023-02-24T07:51:27;99739.72;;;10.94;72.29
18527;BME280;9393;42.158;24.748;2023-02-24T07:54:32;99739.56;;;11.05;71.95
18527;BME280;9393;42.158;24.748;2023-02-24T07:57:36;99729.34;;;11.41;70.78
18527;BME280;9393;42.158;24.748;2023-02-24T08:00:40;99735.38;;;11.32;70.78
18527;BME280;9393;42.158;24.748;2023-02-24T08:04:02;99739.44;;;11.17;71.19
18527;BME280;9393;42.158;24.748;2023-02-24T08:07:09;99730.25;;;11.49;70.13
18527;BME280;9393;42.158;24.748;2023-02-24T08:10:16;99732.38;;;11.73;68.92
18527;BME280;9393;42.158;24.748;2023-02-24T08:13:27;99735.34;;;11.51;69.68
18527;BME280;9393;42.158;24.748;2023-02-24T08:16:39;99731.75;;;11.61;69.81
18527;BME280;9393;42.158;24.748;2023-02-24T08:19:45;99733.38;;;11.72;69.40
18527;BME280;9393;42.158;24.748;2023-02-24T08:22:51;99734.81;;;11.38;70.83
18527;BME280;9393;42.158;24.748;2023-02-24T08:25:55;99732.88;;;11.49;70.60
18527;BME280;9393;42.158;24.748;2023-02-24T08:28:59;99732.38;;;11.73;69.61
18527;BME280;9393;42.158;24.748;2023-02-24T08:32:09;99738.34;;;11.56;69.83
18527;BME280;9393;42.158;24.748;2023-02-24T08:35:17;99736.13;;;11.14;71.76
18527;BME280;9393;42.158;24.748;2023-02-24T08:38:21;99738.63;;;11.53;70.24
18527;BME280;9393;42.158;24.748;2023-02-24T08:41:27;99733.81;;;11.58;70.48
18527;BME280;9393;42.158;24.748;2023-02-24T08:44:47;99735.25;;;11.70;70.24
18527;BME280;9393;42.158;24.748;2023-02-24T08:47:54;99725.91;;;11.77;70.06
18527;BME280;9393;42.158;24.748;2023-02-24T08:51:07;99724.94;;;12.05;69.34
18527;BME280;9393;42.158;24.748;2023-02-24T08:54:13;99724.72;;;11.99;68.79
18527;BME280;9393;42.158;24.748;2023-02-24T08:57:17;99726.66;;;11.60;70.25
18527;BME280;9393;42.158;24.748;2023-02-24T09:00:21;99723.97;;;11.79;69.61
18527;BME280;9393;42.158;24.748;2023-02-24T09:03:45;99716.81;;;11.81;69.76
18527;BME280;9393;42.158;24.748;2023-02-24T09:06:51;99715.94;;;11.90;69.47
18527;BME280;9393;42.158;24.748;2023-02-24T09:10:15;99702.34;;;11.50;71.88
18527;BME280;9393;42.158;24.748;2023-02-24T09:13:20;99709.50;;;11.85;70.62
18527;BME280;9393;42.158;24.748;2023-02-24T09:16:24;99711.19;;;12.03;69.76
18527;BME280;9393;42.158;24.748;2023-02-24T09:19:29;99693.34;;;11.62;71.41
18527;BME280;9393;42.158;24.748;2023-02-24T09:22:53;99694.47;;;12.14;69.90
18527;BME280;9393;42.158;24.748;2023-02-24T09:26:06;99692.03;;;12.30;68.75
18527;BME280;9393;42.158;24.748;2023-02-24T09:29:12;99690.16;;;12.23;69.11
18527;BME280;9393;42.158;24.748;2023-02-24T09:32:30;99669.75;;;12.61;67.75
18527;BME280;9393;42.158;24.748;2023-02-24T09:35:36;99679.34;;;11.90;70.31
18527;BME280;9393;42.158;24.748;2023-02-24T09:38:46;99673.19;;;13.05;67.32
18527;BME280;9393;42.158;24.748;2023-02-24T09:42:11;99672.00;;;13.59;64.52
18527;BME280;9393;42.158;24.748;2023-02-24T09:45:38;99669.59;;;13.32;64.90
18527;BME280;9393;42.158;24.748;2023-02-24T09:48:48;99662.81;;;13.55;64.20
18527;BME280;9393;42.158;24.748;2023-02-24T09:51:55;99663.41;;;13.75;63.74
18527;BME280;9393;42.158;24.748;2023-02-24T09:55:16;99651.59;;;13.79;63.71
18527;BME280;9393;42.158;24.748;2023-02-24T09:58:37;99643.72;;;13.71;63.87
18527;BME280;9393;42.158;24.748;2023-02-24T10:01:53;99643.22;;;13.76;63.42
18527;BME280;9393;42.158;24.748;2023-02-24T10:05:12;99646.66;;;13.68;64.03
18527;BME280;9393;42.158;24.748;2023-02-24T10:08:27;99634.91;;;13.72;63.94
18527;BME280;9393;42.158;24.748;2023-02-24T10:11:34;99633.63;;;14.00;63.05
18527;BME280;9393;42.158;24.748;2023-02-24T10:14:45;99622.25;;;14.34;61.90
18527;BME280;9393;42.158;24.748;2023-02-24T10:17:56;99615.31;;;14.25;61.99
18527;BME280;9393;42.158;24.748;2023-02-24T10:21:19;99596.97;;;14.49;61.29
18527;BME280;9393;42.158;24.748;2023-02-24T10:24:36;99591.03;;;14.71;60.14
18527;BME280;9393;42.158;24.748;2023-02-24T10:27:57;99593.78;;;15.41;58.13
18527;BME280;9393;42.158;24.748;2023-02-24T10:31:09;99583.66;;;14.66;59.70
18527;BME280;9393;42.158;24.748;2023-02-24T10:34:27;99579.81;;;15.01;58.86
18527;BME280;9393;42.158;24.748;2023-02-24T10:37:34;99576.94;;;14.56;60.34
18527;BME280;9393;42.158;24.748;2023-02-24T10:40:46;99571.22;;;14.69;59.66
18527;BME280;9393;42.158;24.748;2023-02-24T10:43:59;99558.25;;;14.59;60.25
18527;BME280;9393;42.158;24.748;2023-02-24T10:47:09;99563.19;;;14.05;61.44
18527;BME280;9393;42.158;24.748;2023-02-24T10:50:23;99557.28;;;14.11;61.32
18527;BME280;9393;42.158;24.748;2023-02-24T10:53:33;99553.16;;;13.93;62.16
18527;BME280;9393;42.158;24.748;2023-02-24T10:56:40;99540.38;;;14.14;61.44
18527;BME280;9393;42.158;24.748;2023-02-24T10:59:55;99541.88;;;14.08;61.77
18527;BME280;9393;42.158;24.748;2023-02-24T11:03:17;99533.69;;;13.95;61.98
18527;BME280;9393;42.158;24.748;2023-02-24T11:06:37;99537.09;;;13.88;62.52
18527;BME280;9393;42.158;24.748;2023-02-24T11:10:05;99525.59;;;13.06;65.01
18527;BME280;9393;42.158;24.748;2023-02-24T11:13:16;99522.19;;;13.80;63.15
18527;BME280;9393;42.158;24.748;2023-02-24T11:16:45;99519.59;;;13.88;62.88
18527;BME280;9393;42.158;24.748;2023-02-24T11:20:20;99516.34;;;13.28;64.59
18527;BME280;9393;42.158;24.748;2023-02-24T11:23:27;99506.53;;;13.22;64.82
18527;BME280;9393;42.158;24.748;2023-02-24T11:26:35;99513.69;;;13.94;62.87
18527;BME280;9393;42.158;24.748;2023-02-24T11:30:04;99501.22;;;14.12;62.01
18527;BME280;9393;42.158;24.748;2023-02-24T11:33:27;99490.72;;;14.12;61.77
18527;BME280;9393;42.158;24.748;2023-02-24T11:36:41;99489.09;;;14.03;62.17
18527;BME280;9393;42.158;24.748;2023-02-24T11:39:55;99483.41;;;12.76;65.61
18527;BME280;9393;42.158;24.748;2023-02-24T11:43:05;99481.06;;;12.31;67.18
18527;BME280;9393;42.158;24.748;2023-02-24T11:46:14;99474.66;;;12.93;65.70
18527;BME280;9393;42.158;24.748;2023-02-24T11:49:26;99477.84;;;13.12;64.94
18527;BME280;9393;42.158;24.748;2023-02-24T11:52:35;99469.09;;;13.62;63.50
18527;BME280;9393;42.158;24.748;2023-02-24T11:55:43;99459.28;;;13.88;62.64
18527;BME280;9393;42.158;24.748;2023-02-24T11:58:52;99460.91;;;13.73;63.05
18527;BME280;9393;42.158;24.748;2023-02-24T12:02:02;99463.69;;;13.55;63.52
18527;BME280;9393;42.158;24.748;2023-02-24T12:05:12;99452.09;;;13.82;63.01
18527;BME280;9393;42.158;24.748;2023-02-24T12:08:23;99452.03;;;13.42;64.47
18527;BME280;9393;42.158;24.748;2023-02-24T12:11:36;99453.16;;;13.31;64.64
18527;BME280;9393;42.158;24.748;2023-02-24T12:14:46;99449.47;;;13.74;63.05
18527;BME280;9393;42.158;24.748;2023-02-24T12:17:56;99441.75;;;13.73;63.32
18527;BME280;9393;42.158;24.748;2023-02-24T12:21:07;99449.47;;;13.58;63.32
18527;BME280;9393;42.158;24.748;2023-02-24T12:24:13;99443.38;;;14.06;61.94
18527;BME280;9393;42.158;24.748;2023-02-24T12:27:29;99434.97;;;14.27;61.17
18527;BME280;9393;42.158;24.748;2023-02-24T12:30:48;99431.94;;;14.62;59.98
18527;BME280;9393;42.158;24.748;2023-02-24T12:34:04;99420.53;;;14.86;59.58
18527;BME280;9393;42.158;24.748;2023-02-24T12:37:25;99417.94;;;14.78;59.87
18527;BME280;9393;42.158;24.748;2023-02-24T12:40:39;99416.72;;;15.19;58.34
18527;BME280;9393;42.158;24.748;2023-02-24T12:43:52;99414.53;;;15.31;57.92
18527;BME280;9393;42.158;24.748;2023-02-24T12:47:04;99408.88;;;15.79;56.92
18527;BME280;9393;42.158;24.748;2023-02-24T12:50:18;99397.22;;;16.11;55.60
18527;BME280;9393;42.158;24.748;2023-02-24T12:53:32;99396.25;;;16.27;54.53
18527;BME280;9393;42.158;24.748;2023-02-24T12:56:47;99394.44;;;16.12;54.68
18527;BME280;9393;42.158;24.748;2023-02-24T12:59:54;99378.09;;;16.46;54.20
18527;BME280;9393;42.158;24.748;2023-02-24T13:03:06;99385.53;;;16.13;54.27
18527;BME280;9393;42.158;24.748;2023-02-24T13:06:27;99376.84;;;16.13;54.75
18527;BME280;9393;42.158;24.748;2023-02-24T13:09:39;99368.91;;;15.84;55.39
18527;BME280;9393;42.158;24.748;2023-02-24T13:12:50;99361.44;;;15.58;55.83
18527;BME280;9393;42.158;24.748;2023-02-24T13:15:57;99359.50;;;16.18;54.40
18527;BME280;9393;42.158;24.748;2023-02-24T13:19:16;99360.00;;;15.70;55.30
18527;BME280;9393;42.158;24.748;2023-02-24T13:22:25;99352.78;;;16.16;54.36
18527;BME280;9393;42.158;24.748;2023-02-24T13:25:34;99344.84;;;15.72;55.31
18527;BME280;9393;42.158;24.748;2023-02-24T13:28:39;99338.97;;;15.70;55.41
18527;BME280;9393;42.158;24.748;2023-02-24T13:31:45;99331.28;;;15.83;54.82
18527;BME280;9393;42.158;24.748;2023-02-24T13:34:50;99329.66;;;16.11;54.19
18527;BME280;9393;42.158;24.748;2023-02-24T13:37:54;99327.22;;;15.95;54.56
18527;BME280;9393;42.158;24.748;2023-02-24T13:41:07;99319.41;;;15.87;54.98
18527;BME280;9393;42.158;24.748;2023-02-24T13:44:25;99318.81;;;15.25;56.70
18527;BME280;9393;42.158;24.748;2023-02-24T13:47:50;99318.28;;;15.07;57.24
18527;BME280;9393;42.158;24.748;2023-02-24T13:51:14;99316.59;;;15.74;55.60
18527;BME280;9393;42.158;24.748;2023-02-24T13:54:40;99309.44;;;15.97;54.98
18527;BME280;9393;42.158;24.748;2023-02-24T13:58:10;99314.41;;;16.22;54.10
18527;BME280;9393;42.158;24.748;2023-02-24T14:01:21;99309.28;;;15.47;55.79
18527;BME280;9393;42.158;24.748;2023-02-24T14:04:29;99305.72;;;15.77;55.22
18527;BME280;9393;42.158;24.748;2023-02-24T14:07:36;99299.91;;;15.96;54.73
18527;BME280;9393;42.158;24.748;2023-02-24T14:10:43;99296.91;;;16.14;54.43
18527;BME280;9393;42.158;24.748;2023-02-24T14:13:51;99290.19;;;16.11;54.10
18527;BME280;9393;42.158;24.748;2023-02-24T14:16:56;99290.13;;;15.90;54.83
18527;BME280;9393;42.158;24.748;2023-02-24T14:20:09;99298.00;;;15.38;55.86
18527;BME280;9393;42.158;24.748;2023-02-24T14:23:21;99300.09;;;15.05;57.17
18527;BME280;9393;42.158;24.748;2023-02-24T14:26:26;99299.97;;;14.76;58.20
18527;BME280;9393;42.158;24.748;2023-02-24T14:29:34;99299.78;;;15.23;56.86
18527;BME280;9393;42.158;24.748;2023-02-24T14:32:47;99299.91;;;15.67;55.78
18527;BME280;9393;42.158;24.748;2023-02-24T14:35:51;99284.50;;;15.79;55.15
18527;BME280;9393;42.158;24.748;2023-02-24T14:39:01;99281.22;;;15.77;55.37
18527;BME280;9393;42.158;24.748;2023-02-24T14:42:13;99281.22;;;15.91;54.93
18527;BME280;9393;42.158;24.748;2023-02-24T14:45:21;99282.28;;;15.15;56.89
18527;BME280;9393;42.158;24.748;2023-02-24T14:48:28;99280.78;;;15.36;56.48
18527;BME280;9393;42.158;24.748;2023-02-24T14:51:33;99273.31;;;15.47;56.25
18527;BME280;9393;42.158;24.748;2023-02-24T14:54:41;99273.50;;;14.86;57.71
18527;BME280;9393;42.158;24.748;2023-02-24T14:57:52;99270.59;;;15.18;56.98
18527;BME280;9393;42.158;24.748;2023-02-24T15:01:02;99263.91;;;14.93;57.59
18527;BME280;9393;42.158;24.748;2023-02-24T15:04:13;99273.06;;;15.20;56.84
18527;BME280;9393;42.158;24.748;2023-02-24T15:07:25;99271.22;;;15.05;57.33
18527;BME280;9393;42.158;24.748;2023-02-24T15:10:30;99280.38;;;15.09;57.16
18527;BME280;9393;42.158;24.748;2023-02-24T15:13:37;99269.28;;;14.77;58.16
18527;BME280;9393;42.158;24.748;2023-02-24T15:16:44;99266.56;;;14.70;58.53
18527;BME280;9393;42.158;24.748;2023-02-24T15:19:50;99262.53;;;14.82;58.05
18527;BME280;9393;42.158;24.748;2023-02-24T15:22:57;99260.44;;;14.78;58.34
18527;BME280;9393;42.158;24.748;2023-02-24T15:26:02;99258.19;;;14.66;58.60
18527;BME280;9393;42.158;24.748;2023-02-24T15:29:13;99255.22;;;14.70;58.52
18527;BME280;9393;42.158;24.748;2023-02-24T15:32:22;99256.50;;;14.51;59.28
18527;BME280;9393;42.158;24.748;2023-02-24T15:35:28;99251.94;;;14.45;59.27
18527;BME280;9393;42.158;24.748;2023-02-24T15:38:36;99264.09;;;14.38;59.71
18527;BME280;9393;42.158;24.748;2023-02-24T15:41:42;99253.56;;;14.15;60.41
18527;BME280;9393;42.158;24.748;2023-02-24T15:44:51;99267.56;;;13.99;60.85
18527;BME280;9393;42.158;24.748;2023-02-24T15:47:59;99262.69;;;13.88;61.50
18527;BME280;9393;42.158;24.748;2023-02-24T15:51:04;99262.69;;;13.88;61.35
18527;BME280;9393;42.158;24.748;2023-02-24T15:54:11;99262.69;;;13.80;62.19
18527;BME280;9393;42.158;24.748;2023-02-24T15:57:17;99268.47;;;13.68;62.12
18527;BME280;9393;42.158;24.748;2023-02-24T16:00:22;99266.97;;;13.73;62.12
18527;BME280;9393;42.158;24.748;2023-02-24T16:03:27;99264.41;;;13.65;62.45
18527;BME280;9393;42.158;24.748;2023-02-24T16:06:31;99264.69;;;13.70;62.04
18527;BME280;9393;42.158;24.748;2023-02-24T16:09:39;99266.97;;;13.81;61.71
18527;BME280;9393;42.158;24.748;2023-02-24T16:12:47;99253.75;;;13.66;62.33
18527;BME280;9393;42.158;24.748;2023-02-24T16:15:52;99260.66;;;13.51;62.82
18527;BME280;9393;42.158;24.748;2023-02-24T16:18:59;99265.47;;;13.24;64.05
18527;BME280;9393;42.158;24.748;2023-02-24T16:22:03;99270.19;;;13.28;63.81
18527;BME280;9393;42.158;24.748;2023-02-24T16:25:09;99263.63;;;13.24;63.95
18527;BME280;9393;42.158;24.748;2023-02-24T16:28:14;99268.88;;;13.40;63.53
18527;BME280;9393;42.158;24.748;2023-02-24T16:31:18;99270.81;;;13.38;63.58
18527;BME280;9393;42.158;24.748;2023-02-24T16:34:24;99262.47;;;13.43;63.36
18527;BME280;9393;42.158;24.748;2023-02-24T16:37:28;99266.75;;;13.36;63.60
18527;BME280;9393;42.158;24.748;2023-02-24T16:40:34;99271.66;;;13.23;63.87
18527;BME280;9393;42.158;24.748;2023-02-24T16:43:39;99280.00;;;13.02;64.92
18527;BME280;9393;42.158;24.748;2023-02-24T16:46:44;99279.47;;;12.90;65.18
18527;BME280;9393;42.158;24.748;2023-02-24T16:49:50;99277.16;;;12.79;65.34